EHEH

Eindhoven Airport

Eindhoven, The Netherlands
METAR EHEH 200655Z AUTO 06004KT 010V080 6000 BR OVC130 M00/M03 Q1018 WHT 05006KT 4000 BR NSC TEMPO 3000
Observed Flight Rules
Feb-20 @ 06:55 UTC (26 minutes ago) Marginal Visual Flight Rules
Wind Visibility Clouds Conditions
60° at 4 knots 6,003 meters
  • Overcast at 13,000' AGL
  • Mist
  • Mist
Temperatures Readings
Current 0°C / 32°F
Dewpoint -3°C / 27°F
Humidity 80%
Altimeter 30.06" Hg
Pressure 1018 hPa
Elevation 22
METAR EHEH 200655Z AUTO 06004KT 010V080 6000 BR OVC130 M00/M03 Q1018 WHT 05006KT 4000 BR NSC TEMPO 3000
Observed Flight Rules
Feb-20 @ 06:55 UTC
(26 minutes ago)
MVFR
Wind Visibility
60° at 4 knots 6,003 meters
Clouds
  • Overcast at 13,000' AGL
Conditions
  • Mist
  • Mist
Temperature Dewpoint
0°C / 32°F -3°C / 27°F
Humidity Altimeter Pressure
80% 30.06" Hg 1018 hPa